This is the latest recevied weather packets stored in our database for station/object K9APR. If no packets are shown the sender has not sent any weather packets the latest 10 day(s).
| Time | Temp. | Humidity | Pressure | Rain* | Wind** | Luminosity | Snow |
|---|---|---|---|---|---|---|---|
| 1777854739 | 13.89° C | 52% | 1013.3 hPa | 0 mm | - | - | - |
| 1777854201 | 13.89° C | 52% | 1013.2 hPa | 0 mm | - | - | - |
| 1777853661 | 14.44° C | 51% | 1013.3 hPa | 0 mm | - | - | - |
| 1777853120 | 14.44° C | 50% | 1013.1 hPa | 0 mm | - | - | - |
| 1777852579 | 14.44° C | 49% | 1013.2 hPa | 0 mm | - | - | - |
| 1777852040 | 14.44° C | 48% | 1013.1 hPa | 0 mm | - | - | - |
| 1777851499 | 14.44° C | 48% | 1013 hPa | 0 mm | - | - | - |
| 1777850961 | 14.44° C | 48% | 1013.1 hPa | 0 mm | - | - | - |
| 1777850419 | 14.44° C | 47% | 1013.2 hPa | 0 mm | - | - | - |
| 1777849880 | 14.44° C | 47% | 1013.1 hPa | 0 mm | - | - | - |
| 1777849340 | 14.44° C | 47% | 1013.3 hPa | 0 mm | - | - | - |
| 1777848799 | 14.44° C | 49% | 1013.4 hPa | 0 mm | - | - | - |
| 1777848260 | 14.44° C | 49% | 1013.4 hPa | 0 mm | - | - | - |
| 1777847720 | 14.44° C | 51% | 1013.6 hPa | 0 mm | - | - | - |
| 1777847180 | 14.44° C | 51% | 1013.8 hPa | 0 mm | - | - | - |
| 1777846640 | 13.89° C | 51% | 1014.1 hPa | 0 mm | - | - | - |
| 1777845561 | 12.22° C | 66% | 1014.3 hPa | 0 mm | - | - | - |
| 1777845363 | 12.22° C | 68% | 1014.5 hPa | 0 mm | - | - | - |
| 1777844825 | 12.22° C | 67% | 1014.6 hPa | 0 mm | - | - | - |
| 1777844283 | 11.67° C | 68% | 1014.8 hPa | 0 mm | - | - | - |
| 1777843744 | 11.67° C | 66% | 1015 hPa | 0 mm | - | - | - |
| 1777843204 | 11.67° C | 71% | 1015.1 hPa | 0 mm | - | - | - |
| 1777842664 | 11.67° C | 69% | 1015.1 hPa | 0 mm | - | - | - |
| 1777842124 | 11.67° C | 70% | 1015.3 hPa | 0 mm | - | - | - |
| 1777841044 | 11.11° C | 71% | 1015.5 hPa | 0 mm | - | - | - |
* Rain latest hour (hover to see other rain measurements)
** Current wind speed in m/s (hover to see current wind gust speed)